Авиационная погода в Вардё

Регион: 
Погода METAR: 
ENSS 291020Z AUTO 01012KT 9999 OVC008 06/04 Q1018 RMK WIND 0354FT 03022KT 010V130
Время наблюдения
2022-05-29T10:20:00Z
Температура C
6.0
Точка росы
4.0
Направление ветра
10
Скорость ветра (узлы)
12
Метео видимость
6.21
Облачность
OVC
Нижняя граница облачности (футы)
800
Явления погоды
Условия полета
IFR
OVC – сплошная облачность;